METAR Reports From Nearby Airports

 

KTIW - Tacoma, Washington, USA
Distance from station: S 6mi, 10km
Updated: Wed, 26-Jul-2017 2:53pm PDT
Few Clouds
Few Clouds
 Wind from W
Wind: W 6 mph , 9 km/h
Temperature: 75°F , 24°C
Dew Point: 57°F , 14°C
Humidity: 54%
Barometer: 30.06 inHg , 1017.9 hPa
Clouds: Few Clouds
Visibility: 10 miles , 16 km
Cloud details: Few Clouds 4000 ft
2017/07/26 21:53 KTIW 262153Z 26005KT 10SM FEW040 24/14 A3006 RMK AO2 SLP178 T02440139
KPWT - Bremerton Ntnl, Washington, USA
Distance from station: NW 13mi, 20km
Updated: Wed, 26-Jul-2017 2:56pm PDT
Clear
Clear
 Wind from W
Wind: W 8 mph , 13 km/h
Temperature: 82°F , 28°C
Heat Index: 81°F , 27°C
Dew Point: 55°F , 13°C
Humidity: 40%
Barometer: 30.06 inHg , 1017.9 hPa
Clouds: Clear
Visibility: 10 miles , 16 km
2017/07/26 21:56 KPWT 262156Z AUTO 28007KT 10SM CLR 28/13 A3006 RMK AO2 SLP193 T02780128
KSEA - Seattle/Metro, Washington, USA
Distance from station: ENE 14mi, 23km
Updated: Wed, 26-Jul-2017 2:53pm PDT
Few Clouds
Few Clouds
 Wind from varies
Wind: varies 5 mph , 7 km/h
Temperature: 79°F , 26°C
Dew Point: 55°F , 13°C
Humidity: 45%
Barometer: 30.07 inHg , 1018.3 hPa
Clouds: Few Clouds
Visibility: 10 miles , 16 km
Cloud details: Few Clouds 5000 ft
Few Clouds 20000 ft
2017/07/26 21:53 KSEA 262153Z VRB04KT 10SM FEW050 FEW200 26/13 A3007 RMK AO2 SLP185 T02610128
 
KTCM - Tacoma/Mc Chord, Washington, USA
Distance from station: SSE 17mi, 28km
Updated: Wed, 26-Jul-2017 2:55pm PDT
Clear
Clear
 Wind from varies
Wind: varies 5 mph , 7 km/h
Temperature: 79°F , 26°C
Dew Point: 61°F , 16°C
Humidity: 54%
Barometer: 30.07 inHg , 1018.3 hPa
Clouds: Clear
Visibility: 10 miles , 16 km
2017/07/26 21:55 KTCM 262155Z VRB04KT 10SM CLR 26/16 A3007 RMK AO2A SLP183 T02580156 $
KBFI - Seattle/Boeing, Washington, USA
Distance from station: NE 19mi, 30km
Updated: Wed, 26-Jul-2017 2:53pm PDT
Few Clouds
Few Clouds
 Wind from calm
Wind: Calm
Temperature: 81°F , 27°C
Dew Point: 54°F , 12°C
Humidity: 39%
Barometer: 30.05 inHg , 1017.6 hPa
Clouds: Few Clouds
Visibility: 10 miles , 16 km
Cloud details: Few Clouds 25000 ft
2017/07/26 21:53 KBFI 262153Z 00000KT 10SM FEW250 27/12 A3005 RMK AO2 SLP174 T02670122 $
KGRF - Fort Lewis/Gray, Washington, USA
Distance from station: S 20mi, 32km
Updated: Wed, 26-Jul-2017 2:58pm PDT
Clear
Clear
 Wind from W
Wind: W 7 mph , 11 km/h
Temperature: 79°F , 26°C
Dew Point: 61°F , 16°C
Humidity: 54%
Barometer: 30.06 inHg , 1017.9 hPa
Clouds: Clear
Visibility: 10 miles , 16 km
2017/07/26 21:58 KGRF 262158Z AUTO 26006KT 10SM CLR 26/16 A3006 RMK AO2 SLP182 T02630164 $
 
KRNT - Renton, Washington, USA
Distance from station: ENE 20mi, 32km
Updated: Wed, 26-Jul-2017 2:53pm PDT
Clear
Clear
 Wind from NW
Wind: NW 9 mph , 15 km/h
Temperature: 81°F , 27°C
Heat Index: 81°F , 27°C
Dew Point: 55°F , 13°C
Humidity: 42%
Barometer: 30.04 inHg , 1017.3 hPa
Clouds: Clear
Visibility: 10 miles , 16 km
2017/07/26 21:53 KRNT 262153Z 32008KT 10SM CLR 27/13 A3004 RMK AO2 SLP178 T02720133
KPLU - Puyallup/Thun, Washington, USA
Distance from station: SE 23mi, 36km
Updated: Wed, 26-Jul-2017 3:35pm PDT
Clear
Clear
 Wind from W
Wind: W 5 mph , 7 km/h
Temperature: 84°F , 29°C
Dew Point: 55°F , 13°C
Humidity: 37%
Barometer: 30.07 inHg , 1018.3 hPa
Clouds: Clear
Visibility: 10 miles , 16 km
2017/07/26 22:35 KPLU 262235Z AUTO 27004KT 10SM CLR 29/13 A3007 RMK AO2
KSHN - Shelton, Washington, USA
Distance from station: WSW 27mi, 43km
Updated: Wed, 26-Jul-2017 2:53pm PDT
Clear
Clear
 Wind from SW
Wind: SW 12 mph , 19 km/h
Temperature: 81°F , 27°C
Heat Index: 81°F , 27°C
Dew Point: 59°F , 15°C
Humidity: 48%
Barometer: 30.04 inHg , 1017.3 hPa
Clouds: Clear
Visibility: 10 miles , 16 km
2017/07/26 21:53 KSHN 262153Z AUTO 22010KT 10SM CLR 27/15 A3004 RMK AO2 SLP171 T02720150
 
KOLM - Olympia, Washington, USA
Distance from station: SSW 30mi, 49km
Updated: Wed, 26-Jul-2017 2:54pm PDT
Clear
Clear
 Wind from varies
Wind: varies 6 mph , 9 km/h
Temperature: 81°F , 27°C
Heat Index: 81°F , 27°C
Dew Point: 59°F , 15°C
Humidity: 48%
Barometer: 30.06 inHg , 1017.9 hPa
Clouds: Clear
Visibility: 10 miles , 16 km
2017/07/26 21:54 KOLM 262154Z VRB05KT 10SM CLR 27/15 A3006 RMK AO2 SLP177 T02670150
KPAE - Everett, Washington, USA
Distance from station: NNE 41mi, 67km
Updated: Wed, 26-Jul-2017 2:53pm PDT
Clear
Clear
 Wind from varies
Wind: varies 6 mph , 9 km/h
Temperature: 75°F , 24°C
Dew Point: 55°F , 13°C
Humidity: 50%
Barometer: 30.08 inHg , 1018.6 hPa
Clouds: Clear
Visibility: 10 miles , 16 km
2017/07/26 21:53 KPAE 262153Z VRB05KT 10SM CLR 24/13 A3008 RMK AO2 SLP185 T02390133
KCLS - Chehalis Central, Washington, USA
Distance from station: SSW 50mi, 80km
Updated: Wed, 26-Jul-2017 3:35pm PDT
Clear
Clear
 Wind from varies
Wind: varies 7 mph , 11 km/h, Gust: 16 mph , 26 km/h
Temperature: 82°F , 28°C
Heat Index: 82°F , 28°C
Dew Point: 61°F , 16°C
Humidity: 48%
Barometer: 30.07 inHg , 1018.3 hPa
Clouds: Clear
Visibility: 10 miles , 16 km
2017/07/26 22:35 KCLS 262235Z AUTO VRB06G14KT 10SM CLR 28/16 A3007 RMK AO2